Willard, Colorado
Current Conditions -  °F | °C
As of 10:50 AM on Thursday 30 Oct 2014 (Local Time) from KSTK Reporting Station
Clear Clear  
Wind Chill: 61°   Ceiling: Unl
Heat Index: 61°   Visibility: 10mi
Dew Point: 34°   Wind: 7mph
Humidity: 36%   Direction: 340°NNW
Pressure: 30.34"   Gusts: NA
Location:  40.5426°N, 103.449°W
Report Text: KSTK 301650Z AUTO 34006KT 10SM CLR 16/01 A3034 RMK AO2
Loading
Personal Weather Stations






























Interactive Weather Map New forecast layout! Learn more

10-Day Weather Forecast

Advertisements
Track Severe Weather on mobile